Time;durP1;ratioP1;P1;durP2;ratioP2;P2;SDS_P1;SDS_P2;PMS_P1;PMS_P2;Temp;Humidity;BMP_temperature;BMP_pressure;BME280_temperature;BME280_humidity;BME280_pressure;Samples;Min_cycle;Max_cycle;Signal;HPM_P1;HPM_P2
2021/10/05 00:01:30;;;;;;;11.27;6.15;;;1.30;99.90;;;;;;4378308;32;20070;-64
2021/10/05 00:03:56;;;;;;;11.90;6.68;;;1.40;99.90;;;;;;4389998;32;20069;-65
2021/10/05 00:06:23;;;;;;;11.80;6.30;;;1.30;99.90;;;;;;4380459;32;20447;-65
2021/10/05 00:08:49;;;;;;;12.57;6.10;;;1.20;99.90;;;;;;4382742;32;20444;-64
2021/10/05 00:11:15;;;;;;;11.88;5.55;;;1.30;99.90;;;;;;4389761;32;20076;-65
2021/10/05 00:13:41;;;;;;;10.77;5.03;;;1.00;99.90;;;;;;4389619;32;20153;-65
2021/10/05 00:16:08;;;;;;;9.35;5.03;;;1.00;99.90;;;;;;4377841;32;20058;-65
2021/10/05 00:18:35;;;;;;;8.15;5.12;;;1.00;99.90;;;;;;4389755;32;20165;-66
2021/10/05 00:21:03;;;;;;;8.45;4.95;;;1.20;99.90;;;;;;4374767;32;20068;-65
2021/10/05 00:23:29;;;;;;;7.35;4.47;;;1.20;99.90;;;;;;4390168;32;20155;-64
2021/10/05 00:25:56;;;;;;;8.20;4.97;;;0.90;99.90;;;;;;4365104;32;20070;-66
2021/10/05 00:28:22;;;;;;;8.20;4.57;;;1.00;99.90;;;;;;4389871;32;20079;-64
2021/10/05 00:30:48;;;;;;;8.35;4.37;;;1.00;99.90;;;;;;4382640;32;20064;-64
2021/10/05 00:33:14;;;;;;;7.35;4.47;;;1.00;99.90;;;;;;4377391;32;20116;-63
2021/10/05 00:35:40;;;;;;;8.80;4.80;;;1.30;99.90;;;;;;4393829;32;20088;-64
2021/10/05 00:38:07;;;;;;;8.88;4.80;;;1.00;99.90;;;;;;4400553;32;20159;-65
2021/10/05 00:40:33;;;;;;;9.10;5.12;;;1.10;99.90;;;;;;4371080;32;20065;-64
2021/10/05 00:43:00;;;;;;;8.20;5.12;;;1.00;99.90;;;;;;4374129;32;20080;-65
2021/10/05 00:45:26;;;;;;;10.10;5.12;;;0.80;99.90;;;;;;4391989;32;20491;-64
2021/10/05 00:47:52;;;;;;;8.98;5.03;;;0.70;99.90;;;;;;4379629;32;20085;-65
2021/10/05 00:50:19;;;;;;;7.50;4.50;;;0.60;99.90;;;;;;4380990;32;20576;-65
2021/10/05 00:52:47;;;;;;;8.00;4.80;;;0.50;99.90;;;;;;4364627;32;20173;-65
2021/10/05 00:55:13;;;;;;;10.80;5.93;;;0.50;99.90;;;;;;4377004;32;20081;-65
2021/10/05 00:57:40;;;;;;;7.50;4.82;;;0.60;99.90;;;;;;4375052;32;20481;-64
2021/10/05 01:00:07;;;;;;;9.10;5.30;;;0.50;99.90;;;;;;4367939;32;20069;-66
2021/10/05 01:02:33;;;;;;;11.55;6.93;;;0.50;99.90;;;;;;4381185;32;20446;-64
2021/10/05 01:04:59;;;;;;;14.13;6.53;;;0.50;99.90;;;;;;4390115;32;20098;-66
2021/10/05 01:07:26;;;;;;;13.75;7.65;;;0.60;99.90;;;;;;4375896;32;20077;-65
2021/10/05 01:09:52;;;;;;;14.13;8.32;;;0.50;99.90;;;;;;4401634;32;20085;-65
2021/10/05 01:12:19;;;;;;;15.45;8.55;;;0.40;99.90;;;;;;4362451;32;20507;-63
2021/10/05 01:14:45;;;;;;;13.60;8.50;;;0.40;99.90;;;;;;4366288;32;20162;-64
2021/10/05 01:17:12;;;;;;;14.30;9.35;;;0.50;99.90;;;;;;4376795;32;20070;-65
2021/10/05 01:19:38;;;;;;;16.05;9.00;;;0.50;99.90;;;;;;4374646;32;20543;-65
2021/10/05 01:22:05;;;;;;;15.93;9.32;;;0.60;99.90;;;;;;4374343;32;20110;-66
2021/10/05 01:24:32;;;;;;;14.85;8.60;;;0.60;99.90;;;;;;4358490;32;20058;-65
2021/10/05 01:26:59;;;;;;;13.30;7.65;;;0.60;99.90;;;;;;4373680;32;20065;-66
2021/10/05 01:29:28;;;;;;;16.33;9.70;;;0.70;99.90;;;;;;4377288;32;20488;-65
2021/10/05 01:31:56;;;;;;;13.82;8.90;;;0.60;99.90;;;;;;4390149;32;20089;-64
2021/10/05 01:34:23;;;;;;;13.82;7.78;;;0.60;99.90;;;;;;4391927;32;20073;-63
2021/10/05 01:36:51;;;;;;;10.52;6.47;;;0.90;99.90;;;;;;4379798;32;20074;-64
2021/10/05 01:39:27;;;;;;;10.57;6.30;;;1.10;99.90;;;;;;4354562;32;20464;-65
2021/10/05 01:41:54;;;;;;;;;;;1.10;99.90;;;;;;4400751;32;20073;-65
2021/10/05 01:44:21;;;;;;;10.13;6.03;;;1.40;99.90;;;;;;4377253;32;19977;-64
2021/10/05 01:46:49;;;;;;;7.20;4.75;;;1.50;99.90;;;;;;4377024;32;20080;-64
2021/10/05 01:49:16;;;;;;;6.35;3.92;;;1.70;99.90;;;;;;4406178;32;20072;-64
2021/10/05 01:51:42;;;;;;;6.30;3.78;;;1.90;99.90;;;;;;4400403;32;20083;-65
2021/10/05 01:54:10;;;;;;;6.35;3.70;;;2.00;99.90;;;;;;4349660;32;20070;-65
2021/10/05 01:56:36;;;;;;;6.68;3.60;;;2.00;99.90;;;;;;4383839;32;20072;-64
2021/10/05 01:59:03;;;;;;;5.25;3.25;;;2.00;99.90;;;;;;4385025;32;20169;-66
2021/10/05 02:01:29;;;;;;;4.78;3.40;;;2.00;99.90;;;;;;4379170;32;20082;-64
2021/10/05 02:03:56;;;;;;;4.68;3.15;;;2.10;99.90;;;;;;4405079;32;20070;-65
2021/10/05 02:06:23;;;;;;;5.25;3.03;;;2.20;99.90;;;;;;4379295;32;20159;-65
2021/10/05 02:08:50;;;;;;;5.43;3.25;;;2.10;99.90;;;;;;4396984;32;20086;-65
2021/10/05 02:11:16;;;;;;;6.37;3.10;;;2.10;99.90;;;;;;4391827;32;20086;-64
2021/10/05 02:13:42;;;;;;;4.57;2.72;;;2.10;99.90;;;;;;4393141;32;20088;-64
2021/10/05 02:16:09;;;;;;;6.12;3.00;;;2.00;99.90;;;;;;4365944;32;20124;-63
2021/10/05 02:18:36;;;;;;;5.70;2.90;;;2.10;99.90;;;;;;4365897;32;20518;-65
2021/10/05 02:21:02;;;;;;;5.10;3.25;;;1.90;99.90;;;;;;4378294;32;20066;-65
2021/10/05 02:26:13;;;;;;;4.90;3.33;;;2.00;99.90;;;;;;4382365;32;20080;-64
2021/10/05 02:28:40;;;;;;;4.35;3.00;;;2.00;99.90;;;;;;4380071;32;20545;-64
2021/10/05 02:31:06;;;;;;;4.78;3.17;;;1.90;99.90;;;;;;4380400;32;20594;-64
2021/10/05 02:33:32;;;;;;;4.50;3.03;;;2.00;99.90;;;;;;4404372;32;20075;-64
2021/10/05 02:35:58;;;;;;;4.50;3.15;;;1.90;99.90;;;;;;4404048;32;20495;-65
2021/10/05 02:38:25;;;;;;;5.47;3.67;;;1.90;99.90;;;;;;4369159;32;20070;-64
2021/10/05 02:40:51;;;;;;;5.22;3.05;;;1.90;99.90;;;;;;4391491;32;20089;-65
2021/10/05 02:43:17;;;;;;;4.82;3.10;;;1.90;99.90;;;;;;4390116;32;20463;-64
2021/10/05 02:45:43;;;;;;;4.43;3.10;;;1.80;99.90;;;;;;4367187;32;20089;-64
2021/10/05 02:48:09;;;;;;;4.43;2.87;;;1.90;99.90;;;;;;4391343;32;20077;-64
2021/10/05 02:50:36;;;;;;;5.37;2.95;;;1.90;99.90;;;;;;4379402;32;20089;-64
2021/10/05 02:53:02;;;;;;;5.03;2.90;;;1.90;99.90;;;;;;4398257;32;20150;-64
2021/10/05 02:55:28;;;;;;;5.12;3.33;;;1.90;99.90;;;;;;4391543;32;20164;-63
2021/10/05 02:57:54;;;;;;;4.82;3.00;;;1.90;99.90;;;;;;4393133;32;20602;-65
2021/10/05 03:00:20;;;;;;;5.53;3.15;;;1.90;99.90;;;;;;4402998;32;20484;-65
2021/10/05 03:02:46;;;;;;;6.20;3.30;;;1.90;99.90;;;;;;4366974;32;20077;-65
2021/10/05 03:05:12;;;;;;;3.78;2.87;;;1.90;99.90;;;;;;4391270;32;20145;-65
2021/10/05 03:07:39;;;;;;;5.47;3.12;;;1.90;99.90;;;;;;4390917;32;20101;-65
2021/10/05 03:10:06;;;;;;;4.97;2.72;;;1.90;99.90;;;;;;4391582;32;20088;-65
2021/10/05 03:12:33;;;;;;;4.43;3.00;;;1.80;99.90;;;;;;4370471;32;20065;-64
2021/10/05 03:14:59;;;;;;;6.03;3.60;;;1.90;99.90;;;;;;4367792;32;20072;-65
2021/10/05 03:17:25;;;;;;;4.07;3.00;;;1.90;99.90;;;;;;4382057;32;20074;-64
2021/10/05 03:19:51;;;;;;;6.05;3.35;;;1.90;99.90;;;;;;4367852;32;20081;-63
2021/10/05 03:22:18;;;;;;;7.03;3.30;;;1.90;99.90;;;;;;4382015;32;20070;-65
2021/10/05 03:24:44;;;;;;;5.62;3.47;;;2.00;99.90;;;;;;4373352;32;20089;-64
2021/10/05 03:27:10;;;;;;;6.18;3.30;;;2.00;99.90;;;;;;4390618;32;20097;-65
2021/10/05 03:29:38;;;;;;;8.27;3.37;;;1.90;99.90;;;;;;4378609;32;20082;-64
2021/10/05 03:32:05;;;;;;;7.35;3.20;;;1.90;99.90;;;;;;4381188;32;20133;-63
2021/10/05 03:34:31;;;;;;;5.90;3.70;;;2.00;99.90;;;;;;4391038;32;20500;-64
2021/10/05 03:36:57;;;;;;;8.15;4.03;;;2.20;99.90;;;;;;4396835;32;20070;-65
2021/10/05 03:39:23;;;;;;;6.12;3.72;;;2.20;99.90;;;;;;4381282;32;20066;-63
2021/10/05 03:41:49;;;;;;;7.28;4.47;;;2.20;99.90;;;;;;4402224;32;20479;-64
2021/10/05 03:44:16;;;;;;;9.00;4.22;;;2.20;99.90;;;;;;4377452;32;20066;-64
2021/10/05 03:46:42;;;;;;;6.20;4.07;;;2.20;99.90;;;;;;4377652;32;20537;-65
2021/10/05 03:49:08;;;;;;;12.20;4.97;;;2.20;99.90;;;;;;4390449;32;20094;-64
2021/10/05 03:51:34;;;;;;;7.75;3.70;;;2.20;99.90;;;;;;4365786;32;20092;-66
2021/10/05 03:54:01;;;;;;;5.97;4.20;;;2.30;99.90;;;;;;4402395;32;20074;-64
2021/10/05 03:56:27;;;;;;;7.37;4.30;;;2.30;99.90;;;;;;4384330;32;20661;-64
2021/10/05 03:58:53;;;;;;;10.43;4.60;;;2.30;99.90;;;;;;4397834;32;20082;-64
2021/10/05 04:01:19;;;;;;;9.75;4.45;;;2.40;99.90;;;;;;4398810;32;20070;-65
2021/10/05 04:03:45;;;;;;;9.13;4.70;;;2.50;99.90;;;;;;4376298;32;20086;-64
2021/10/05 04:06:11;;;;;;;7.65;4.22;;;2.50;99.90;;;;;;4378317;32;20074;-63
2021/10/05 04:08:38;;;;;;;7.45;4.43;;;2.60;99.90;;;;;;4390703;32;20158;-63
2021/10/05 04:11:05;;;;;;;7.62;4.40;;;2.70;99.90;;;;;;4389933;32;20467;-64
2021/10/05 04:13:31;;;;;;;8.73;4.62;;;2.70;99.90;;;;;;4366431;32;20065;-65
2021/10/05 04:15:58;;;;;;;8.13;4.80;;;2.70;99.90;;;;;;4390827;32;20089;-63
2021/10/05 04:18:24;;;;;;;8.50;4.40;;;2.80;99.90;;;;;;4356034;32;20066;-65
2021/10/05 04:20:51;;;;;;;10.38;4.85;;;2.90;99.90;;;;;;4376889;32;20065;-65
2021/10/05 04:23:17;;;;;;;9.02;4.55;;;2.90;99.90;;;;;;4386303;32;20166;-63
2021/10/05 04:25:44;;;;;;;10.50;4.50;;;2.90;99.90;;;;;;4364911;32;20077;-64
2021/10/05 04:28:10;;;;;;;8.88;4.40;;;3.00;99.90;;;;;;4392760;32;20081;-65
2021/10/05 04:30:36;;;;;;;8.30;4.70;;;3.10;99.90;;;;;;4390379;32;20069;-64
2021/10/05 04:33:02;;;;;;;6.45;4.22;;;3.10;99.90;;;;;;4396836;32;20070;-63
2021/10/05 04:35:28;;;;;;;14.65;5.37;;;3.20;99.90;;;;;;4380948;32;20129;-64
2021/10/05 04:37:55;;;;;;;8.85;4.35;;;3.30;99.90;;;;;;4392609;32;20109;-64
2021/10/05 04:40:21;;;;;;;6.43;4.75;;;3.30;99.90;;;;;;4387729;32;20077;-63
2021/10/05 04:42:47;;;;;;;7.03;4.25;;;3.30;99.90;;;;;;4390213;32;20181;-63
2021/10/05 04:45:14;;;;;;;9.98;4.70;;;3.50;99.90;;;;;;4385396;32;20595;-64
2021/10/05 04:47:40;;;;;;;9.07;4.32;;;3.60;99.90;;;;;;4388054;32;20105;-65
2021/10/05 04:50:08;;;;;;;7.25;4.03;;;3.60;99.90;;;;;;4377570;32;20165;-63
2021/10/05 04:52:37;;;;;;;7.62;3.75;;;3.80;99.90;;;;;;4371902;32;20146;-63
2021/10/05 04:55:04;;;;;;;5.20;3.67;;;3.90;99.90;;;;;;4385442;32;20579;-63
2021/10/05 04:57:31;;;;;;;6.20;3.15;;;4.70;99.90;;;;;;4380314;32;20078;-65
2021/10/05 04:59:57;;;;;;;5.12;3.40;;;6.50;99.90;;;;;;4389065;32;20089;-64
2021/10/05 05:02:23;;;;;;;5.25;3.42;;;7.40;97.30;;;;;;4389684;32;20082;-65
2021/10/05 05:04:49;;;;;;;6.93;3.50;;;7.90;91.70;;;;;;4390971;32;20078;-64
2021/10/05 05:07:15;;;;;;;5.80;3.72;;;8.00;83.30;;;;;;4377549;32;20497;-64
2021/10/05 05:09:42;;;;;;;4.95;2.62;;;7.40;89.40;;;;;;4387517;32;20435;-64
2021/10/05 05:12:08;;;;;;;5.35;3.30;;;7.20;84.20;;;;;;4380872;32;20069;-63
2021/10/05 05:14:35;;;;;;;5.80;3.67;;;7.80;82.40;;;;;;4369482;32;20074;-64
2021/10/05 05:17:01;;;;;;;4.85;3.33;;;7.60;77.90;;;;;;4389673;32;20066;-64
2021/10/05 05:19:28;;;;;;;5.43;3.40;;;7.50;78.00;;;;;;4377008;32;20527;-73
2021/10/05 05:21:57;;;;;;;5.10;3.25;;;8.10;75.60;;;;;;4400924;32;20189;-66
2021/10/05 05:24:23;;;;;;;6.62;3.42;;;9.20;67.50;;;;;;4396551;32;20088;-65
2021/10/05 05:26:50;;;;;;;5.72;4.10;;;8.50;68.90;;;;;;4396593;32;20078;-64
2021/10/05 05:29:16;;;;;;;5.90;3.28;;;8.30;71.90;;;;;;4389565;32;20150;-63
2021/10/05 05:31:42;;;;;;;6.62;3.50;;;8.80;68.30;;;;;;4390993;32;20499;-65
2021/10/05 05:34:09;;;;;;;4.53;3.25;;;9.10;64.90;;;;;;4355529;32;20070;-63
2021/10/05 05:36:36;;;;;;;6.03;3.53;;;9.60;62.50;;;;;;4379855;32;20073;-64
2021/10/05 05:39:04;;;;;;;5.30;3.60;;;9.60;61.30;;;;;;4392555;32;20073;-64
2021/10/05 05:41:30;;;;;;;4.78;3.08;;;9.70;60.20;;;;;;4355084;32;20063;-64
2021/10/05 05:43:56;;;;;;;7.95;3.45;;;10.10;58.90;;;;;;4380954;32;20152;-63
2021/10/05 05:46:22;;;;;;;6.65;3.42;;;9.00;61.20;;;;;;4390695;32;20496;-65
2021/10/05 05:48:49;;;;;;;6.12;3.08;;;8.50;66.70;;;;;;4392408;32;20492;-64
2021/10/05 05:51:15;;;;;;;5.70;3.30;;;9.50;63.20;;;;;;4391979;32;20601;-64
2021/10/05 05:53:41;;;;;;;4.85;3.08;;;9.50;60.00;;;;;;4396884;32;20441;-63
2021/10/05 05:56:08;;;;;;;8.88;3.30;;;8.90;61.80;;;;;;4379556;32;20081;-64
2021/10/05 05:58:34;;;;;;;6.05;3.33;;;7.60;70.00;;;;;;4392336;32;20522;-65
2021/10/05 06:01:01;;;;;;;5.68;3.50;;;7.40;75.90;;;;;;4367807;32;20074;-64
2021/10/05 06:03:27;;;;;;;5.70;3.08;;;6.90;77.90;;;;;;4371239;32;20170;-63
2021/10/05 06:05:53;;;;;;;8.60;3.85;;;6.90;80.80;;;;;;4368054;32;20078;-64
2021/10/05 06:08:20;;;;;;;4.40;3.08;;;7.20;83.20;;;;;;4367246;32;20066;-64
2021/10/05 06:10:46;;;;;;;5.43;3.42;;;7.00;76.20;;;;;;4391433;32;20066;-63
2021/10/05 06:13:12;;;;;;;4.25;3.08;;;7.10;76.60;;;;;;4384560;32;20519;-64
2021/10/05 06:15:39;;;;;;;4.85;3.20;;;7.20;78.00;;;;;;4379475;32;20066;-64
2021/10/05 06:18:05;;;;;;;6.35;3.25;;;7.00;75.50;;;;;;4391914;32;20066;-63
2021/10/05 06:20:31;;;;;;;4.82;2.90;;;7.10;76.00;;;;;;4374503;32;20069;-63
2021/10/05 06:22:58;;;;;;;4.03;2.75;;;7.30;75.80;;;;;;4373067;32;20070;-66
2021/10/05 06:25:27;;;;;;;4.00;2.75;;;7.50;74.90;;;;;;4367120;32;20097;-64
2021/10/05 06:27:56;;;;;;;7.07;3.70;;;7.50;74.70;;;;;;4378439;32;20085;-64
2021/10/05 06:30:22;;;;;;;5.03;3.35;;;7.50;75.10;;;;;;4367901;32;20549;-62
2021/10/05 06:32:54;;;;;;;5.28;3.05;;;7.70;74.30;;;;;;4374593;32;20097;-63
2021/10/05 06:35:24;;;;;;;5.40;3.22;;;7.60;74.30;;;;;;4362291;32;20062;-65
2021/10/05 06:37:55;;;;;;;5.60;3.22;;;7.50;71.40;;;;;;4402344;32;20069;-63
2021/10/05 06:40:26;;;;;;;4.78;2.95;;;7.70;70.60;;;;;;4373064;32;20062;-63
2021/10/05 06:42:52;;;;;;;5.68;3.03;;;7.80;69.50;;;;;;4390820;32;20073;-64
2021/10/05 06:45:19;;;;;;;4.70;3.05;;;7.60;69.00;;;;;;4393372;32;20089;-64
2021/10/05 06:50:26;;;;;;;5.07;3.03;;;7.70;69.20;;;;;;3826968;37;20082;-63
2021/10/05 06:52:53;;;;;;;5.80;3.25;;;7.90;68.80;;;;;;4384921;32;20595;-65
2021/10/05 06:55:19;;;;;;;5.22;3.22;;;8.00;68.30;;;;;;4355650;32;20081;-63
2021/10/05 06:57:46;;;;;;;4.93;3.35;;;8.20;67.10;;;;;;4349149;32;20058;-67
2021/10/05 07:00:16;;;;;;;5.93;3.95;;;8.20;65.80;;;;;;4362860;32;20068;-64
2021/10/05 07:02:44;;;;;;;9.55;3.97;;;8.10;65.70;;;;;;4344626;32;20085;-65
2021/10/05 07:05:10;;;;;;;6.72;3.33;;;8.00;66.60;;;;;;4371054;32;20077;-65
2021/10/05 07:07:41;;;;;;;5.15;3.35;;;8.00;66.70;;;;;;4349822;32;20087;-64
2021/10/05 07:10:08;;;;;;;5.80;3.78;;;8.00;66.10;;;;;;4350568;32;20106;-63
2021/10/05 07:12:35;;;;;;;7.35;3.78;;;8.00;64.30;;;;;;4355359;32;20077;-65
2021/10/05 07:15:06;;;;;;;6.80;3.67;;;8.10;65.50;;;;;;4349050;32;20085;-63
2021/10/05 07:17:32;;;;;;;4.93;3.78;;;8.30;65.40;;;;;;4366211;32;20081;-65
2021/10/05 07:19:59;;;;;;;4.60;3.30;;;8.30;65.40;;;;;;4390395;32;20076;-63
2021/10/05 07:22:25;;;;;;;5.28;3.75;;;8.10;64.70;;;;;;4346064;32;20112;-64
2021/10/05 07:24:51;;;;;;;5.55;3.85;;;8.30;64.80;;;;;;4377319;32;20158;-64
2021/10/05 07:27:18;;;;;;;4.82;3.37;;;8.40;64.30;;;;;;4390894;32;20104;-64
2021/10/05 07:29:44;;;;;;;5.05;3.25;;;8.70;62.90;;;;;;4362839;32;20078;-64
2021/10/05 07:32:11;;;;;;;7.22;3.20;;;8.70;61.30;;;;;;4355550;32;20092;-65
2021/10/05 07:34:37;;;;;;;6.12;3.75;;;8.90;61.40;;;;;;4347412;32;20452;-63
2021/10/05 07:37:03;;;;;;;4.35;3.22;;;8.90;61.00;;;;;;4347882;32;20171;-62
2021/10/05 07:39:30;;;;;;;4.37;3.15;;;8.70;61.20;;;;;;4361574;32;20096;-63
2021/10/05 07:41:56;;;;;;;7.25;3.42;;;8.90;61.30;;;;;;4346587;32;20071;-63
2021/10/05 07:44:23;;;;;;;5.00;3.70;;;8.90;62.10;;;;;;4366316;32;20074;-65
2021/10/05 07:46:49;;;;;;;5.43;3.60;;;8.80;61.30;;;;;;4349959;32;20165;-64
2021/10/05 07:49:16;;;;;;;7.87;4.20;;;9.00;62.00;;;;;;4377494;32;20070;-63
2021/10/05 07:51:42;;;;;;;5.95;3.80;;;8.90;60.10;;;;;;4373736;32;20073;-65
2021/10/05 07:54:08;;;;;;;6.18;3.80;;;8.80;61.40;;;;;;4370718;32;20178;-65
2021/10/05 07:56:35;;;;;;;6.47;3.58;;;9.00;60.90;;;;;;4352956;32;20074;-64
2021/10/05 07:59:01;;;;;;;7.12;3.28;;;9.40;59.90;;;;;;4371494;32;20074;-66
2021/10/05 08:01:27;;;;;;;5.47;3.50;;;9.60;58.30;;;;;;4354139;32;20082;-65
2021/10/05 08:03:53;;;;;;;5.85;3.50;;;9.60;58.80;;;;;;4363049;32;20168;-64
2021/10/05 08:06:20;;;;;;;4.75;3.47;;;9.50;59.10;;;;;;4351469;32;20109;-65
2021/10/05 08:08:46;;;;;;;5.87;3.20;;;9.10;58.80;;;;;;4349318;32;20086;-64
2021/10/05 08:11:12;;;;;;;8.32;4.82;;;9.40;58.20;;;;;;4356492;32;20058;-63
2021/10/05 08:13:39;;;;;;;6.47;4.25;;;9.10;57.80;;;;;;4339363;32;20066;-64
2021/10/05 08:16:05;;;;;;;5.85;4.03;;;8.80;59.50;;;;;;4329924;32;20070;-65
2021/10/05 08:18:31;;;;;;;8.05;3.80;;;8.90;59.30;;;;;;4348919;32;20507;-64
2021/10/05 08:20:57;;;;;;;6.30;3.83;;;8.80;59.70;;;;;;4349623;32;20094;-64
2021/10/05 08:23:23;;;;;;;7.55;3.92;;;9.00;59.50;;;;;;4362687;32;20077;-65
2021/10/05 08:25:50;;;;;;;7.43;4.22;;;9.50;60.00;;;;;;4348928;32;20078;-66
2021/10/05 08:28:16;;;;;;;5.70;3.85;;;9.50;59.30;;;;;;4340166;32;20062;-65
2021/10/05 08:30:43;;;;;;;7.10;4.00;;;9.30;59.00;;;;;;4357001;32;20156;-65
2021/10/05 08:33:09;;;;;;;5.85;3.75;;;9.70;58.40;;;;;;4343576;32;20156;-65
2021/10/05 08:35:36;;;;;;;4.78;3.65;;;9.50;57.90;;;;;;4343161;32;20094;-63
2021/10/05 08:38:04;;;;;;;7.20;3.80;;;9.60;58.80;;;;;;4352077;32;20151;-65
2021/10/05 08:40:32;;;;;;;8.32;4.18;;;9.50;58.30;;;;;;4351460;32;20072;-66
2021/10/05 08:43:00;;;;;;;7.65;4.70;;;9.70;58.30;;;;;;4347782;32;20191;-65
2021/10/05 08:45:26;;;;;;;6.35;4.32;;;9.60;57.70;;;;;;4348022;32;20078;-63
2021/10/05 08:47:53;;;;;;;6.43;4.03;;;9.60;57.10;;;;;;4328576;32;20062;-65
2021/10/05 08:50:20;;;;;;;7.03;3.75;;;9.70;56.30;;;;;;4361689;32;20079;-64
2021/10/05 08:52:47;;;;;;;5.15;3.78;;;10.10;55.70;;;;;;4355670;32;20501;-62
2021/10/05 08:55:14;;;;;;;5.57;3.78;;;9.80;55.30;;;;;;4328499;32;20073;-64
2021/10/05 08:57:40;;;;;;;6.10;4.12;;;10.20;54.70;;;;;;4348196;32;20070;-63
2021/10/05 09:00:07;;;;;;;5.30;3.90;;;10.10;54.10;;;;;;4365824;32;20066;-64
2021/10/05 09:02:48;;;;;;;5.65;4.03;;;10.00;55.30;;;;;;4336848;32;20089;-64
2021/10/05 09:05:15;;;;;;;5.90;3.70;;;10.10;54.70;;;;;;4359214;32;20154;-62
2021/10/05 09:07:44;;;;;;;6.45;4.65;;;10.30;55.80;;;;;;4338148;32;20098;-63
2021/10/05 09:10:14;;;;;;;7.80;4.55;;;10.20;53.00;;;;;;4351612;32;20050;-63
2021/10/05 09:12:40;;;;;;;5.90;3.47;;;9.80;53.50;;;;;;4335624;32;20067;-64
2021/10/05 09:15:09;;;;;;;7.62;4.45;;;10.60;52.40;;;;;;4340297;32;20148;-63
2021/10/05 09:17:36;;;;;;;5.32;3.70;;;10.40;53.00;;;;;;4336624;32;20450;-64
2021/10/05 09:20:03;;;;;;;5.45;3.40;;;10.20;54.20;;;;;;4322758;32;20456;-66
2021/10/05 09:22:29;;;;;;;5.80;4.25;;;10.40;53.80;;;;;;4349158;32;20202;-65
2021/10/05 09:24:57;;;;;;;7.20;4.35;;;10.70;52.00;;;;;;4324371;32;20141;-65
2021/10/05 09:27:24;;;;;;;8.23;5.12;;;10.40;52.00;;;;;;4339918;32;20071;-65
2021/10/05 09:29:52;;;;;;;8.63;4.35;;;10.30;53.70;;;;;;4348276;32;20441;-64
2021/10/05 09:32:23;;;;;;;9.18;5.20;;;10.50;54.00;;;;;;4337393;32;20504;-63
2021/10/05 09:34:58;;;;;;;9.68;5.72;;;10.70;53.80;;;;;;4330690;32;20097;-64
2021/10/05 09:37:26;;;;;;;8.77;5.70;;;10.20;54.30;;;;;;4347176;32;20097;-64
2021/10/05 09:40:12;;;;;;;9.55;5.78;;;10.50;54.40;;;;;;4336072;32;20071;-63
2021/10/05 09:42:43;;;;;;;10.43;5.15;;;10.50;53.90;;;;;;4348306;32;20076;-65
2021/10/05 09:45:13;;;;;;;8.50;5.00;;;10.90;52.50;;;;;;4335450;32;20098;-65
2021/10/05 09:48:00;;;;;;;10.98;5.78;;;10.80;53.60;;;;;;4323876;32;20501;-66
2021/10/05 09:50:29;;;;;;;12.20;6.70;;;10.80;53.20;;;;;;4347359;32;20082;-64
2021/10/05 09:53:06;;;;;;;12.10;7.35;;;10.30;54.60;;;;;;4336120;32;20081;-63
2021/10/05 09:55:38;;;;;;;12.73;7.07;;;10.00;53.80;;;;;;4348517;32;20090;-65
2021/10/05 09:58:05;;;;;;;10.90;6.53;;;10.20;55.70;;;;;;4337364;32;20078;-64
2021/10/05 10:00:34;;;;;;;17.50;9.30;;;10.20;56.20;;;;;;4341446;32;20448;-64
2021/10/05 10:03:00;;;;;;;14.10;6.97;;;10.20;55.10;;;;;;4345647;32;20580;-65
2021/10/05 10:05:27;;;;;;;11.45;6.50;;;10.40;54.80;;;;;;4347613;32;20090;-64
2021/10/05 10:07:57;;;;;;;17.67;8.02;;;10.70;54.80;;;;;;4342012;32;20073;-64
2021/10/05 10:10:33;;;;;;;15.15;8.70;;;10.70;53.00;;;;;;4335462;32;20074;-64
2021/10/05 10:13:11;;;;;;;13.02;6.45;;;10.70;54.20;;;;;;4335974;32;20198;-64
2021/10/05 10:15:40;;;;;;;13.07;7.18;;;11.00;52.70;;;;;;4347499;32;20102;-64
2021/10/05 10:18:18;;;;;;;11.48;6.72;;;10.50;52.40;;;;;;4336467;32;20082;-65
2021/10/05 10:20:53;;;;;;;11.68;7.05;;;10.20;52.80;;;;;;4352105;32;20088;-69
2021/10/05 10:23:24;;;;;;;9.82;5.95;;;10.00;53.00;;;;;;4324152;32;20468;-64
2021/10/05 10:26:09;;;;;;;11.88;6.82;;;10.50;51.50;;;;;;4338175;32;20093;-62
2021/10/05 10:28:41;;;;;;;14.73;7.95;;;10.60;50.60;;;;;;4333334;32;20075;-62
2021/10/05 10:31:30;;;;;;;11.38;6.90;;;10.50;52.20;;;;;;4356262;32;20079;-63
2021/10/05 10:33:56;;;;;;;8.18;5.47;;;10.60;52.70;;;;;;4340256;32;20070;-63
2021/10/05 10:36:39;;;;;;;11.00;6.55;;;10.70;53.50;;;;;;4346273;32;20092;-63
2021/10/05 10:39:10;;;;;;;11.30;6.00;;;10.90;51.90;;;;;;4359405;32;20078;-63
2021/10/05 10:41:42;;;;;;;10.35;6.82;;;11.10;51.50;;;;;;4350702;32;20539;-64
2021/10/05 10:44:12;;;;;;;11.85;6.00;;;11.20;51.50;;;;;;4329915;32;20153;-62
2021/10/05 10:46:40;;;;;;;9.93;5.97;;;11.30;50.40;;;;;;4340408;32;20101;-62
2021/10/05 10:49:16;;;;;;;12.65;6.15;;;11.40;49.80;;;;;;4311549;32;20070;-62
2021/10/05 10:51:46;;;;;;;9.98;6.05;;;11.30;49.90;;;;;;4334312;32;20155;-63
2021/10/05 10:54:18;;;;;;;11.80;6.70;;;11.70;50.10;;;;;;4339721;32;20105;-63
2021/10/05 10:57:17;;;;;;;11.73;6.50;;;11.10;50.00;;;;;;4339235;32;20512;-63
2021/10/05 10:59:44;;;;;;;9.27;6.00;;;10.60;51.00;;;;;;4313029;32;20130;-62
2021/10/05 11:02:10;;;;;;;11.05;6.20;;;10.50;52.40;;;;;;4348394;32;20067;-64
2021/10/05 11:04:37;;;;;;;9.15;6.07;;;10.40;52.30;;;;;;4337814;32;20098;-67
2021/10/05 11:07:04;;;;;;;9.80;6.03;;;10.80;51.30;;;;;;4319400;32;20058;-63
2021/10/05 11:09:35;;;;;;;7.37;4.85;;;10.70;51.20;;;;;;4337359;32;20070;-63
2021/10/05 11:12:07;;;;;;;9.63;5.78;;;11.20;51.30;;;;;;4338845;32;20219;-63
2021/10/05 11:14:37;;;;;;;10.30;5.82;;;11.20;50.60;;;;;;4327461;32;20454;-63
2021/10/05 11:17:08;;;;;;;11.45;6.40;;;11.00;49.80;;;;;;4334911;32;20078;-62
2021/10/05 11:19:40;;;;;;;8.55;6.10;;;10.70;51.00;;;;;;4332884;32;20164;-64
2021/10/05 11:22:15;;;;;;;7.75;4.90;;;10.50;51.50;;;;;;4348277;32;20058;-62
2021/10/05 11:24:49;;;;;;;9.07;5.22;;;10.90;51.10;;;;;;4331723;32;20135;-63
2021/10/05 11:27:18;;;;;;;8.35;4.85;;;11.60;50.00;;;;;;4329992;32;20070;-63
2021/10/05 11:29:45;;;;;;;9.13;5.12;;;11.60;49.70;;;;;;4336106;32;20508;-62
2021/10/05 11:32:15;;;;;;;11.60;6.70;;;11.80;49.00;;;;;;4317330;32;20062;-63
2021/10/05 11:34:49;;;;;;;8.05;5.93;;;11.80;48.10;;;;;;4337574;32;20107;-62
2021/10/05 11:37:20;;;;;;;8.25;4.82;;;11.20;49.60;;;;;;4339513;32;20074;-62
2021/10/05 11:39:47;;;;;;;9.23;6.15;;;11.10;50.00;;;;;;4333634;32;20070;-64
2021/10/05 11:42:18;;;;;;;10.10;5.00;;;11.10;49.30;;;;;;4349991;32;20071;-63
2021/10/05 11:45:05;;;;;;;8.23;5.55;;;11.20;50.30;;;;;;4344718;32;20093;-65
2021/10/05 11:47:32;;;;;;;8.27;5.47;;;11.10;49.20;;;;;;4344038;32;20105;-63
2021/10/05 11:50:07;;;;;;;11.60;5.12;;;10.80;50.60;;;;;;4337029;32;20078;-62
2021/10/05 11:52:35;;;;;;;8.00;5.00;;;10.90;50.60;;;;;;4346400;32;20090;-64
2021/10/05 11:55:02;;;;;;;7.62;5.10;;;11.00;49.80;;;;;;4339371;32;20125;-63
2021/10/05 11:57:31;;;;;;;8.00;4.72;;;11.00;50.70;;;;;;4339788;32;20078;-65
2021/10/05 12:00:05;;;;;;;9.90;5.05;;;11.20;50.20;;;;;;4351822;32;20070;-63
2021/10/05 12:02:36;;;;;;;11.50;5.20;;;10.80;50.00;;;;;;4346011;32;20120;-64
2021/10/05 12:05:03;;;;;;;7.68;4.78;;;10.80;50.40;;;;;;4361975;32;20110;-66
2021/10/05 12:07:30;;;;;;;5.47;3.95;;;10.50;50.80;;;;;;4354963;32;20140;-62
2021/10/05 12:10:03;;;;;;;8.25;4.35;;;10.50;51.10;;;;;;4362773;32;20143;-64
2021/10/05 12:12:38;;;;;;;5.53;4.07;;;10.60;50.50;;;;;;4337778;32;20146;-63
2021/10/05 12:15:12;;;;;;;6.43;4.22;;;10.80;50.10;;;;;;4349787;32;20059;-66
2021/10/05 12:17:38;;;;;;;5.65;3.90;;;10.70;50.70;;;;;;4339959;32;20255;-63
2021/10/05 12:20:11;;;;;;;5.90;4.05;;;10.70;50.20;;;;;;4330514;32;20059;-64
2021/10/05 12:22:44;;;;;;;5.20;3.85;;;10.60;50.60;;;;;;4342887;32;20062;-64
2021/10/05 12:25:15;;;;;;;6.40;3.70;;;10.70;51.00;;;;;;4337741;32;20166;-64
2021/10/05 12:27:49;;;;;;;8.57;4.30;;;10.70;50.60;;;;;;4342241;32;20067;-63
2021/10/05 12:30:18;;;;;;;5.45;3.55;;;10.60;50.00;;;;;;4337181;32;20088;-64
2021/10/05 12:32:58;;;;;;;4.78;3.47;;;11.10;50.00;;;;;;4336087;32;20506;-65
2021/10/05 12:35:36;;;;;;;6.07;3.60;;;11.70;47.30;;;;;;4346381;32;20066;-64
2021/10/05 12:38:23;;;;;;;5.75;3.72;;;11.00;49.40;;;;;;4336790;32;20159;-63
2021/10/05 12:40:57;;;;;;;;;;;11.00;49.50;;;;;;4336954;32;20167;-62
2021/10/05 12:43:36;;;;;;;4.93;3.53;;;10.70;49.30;;;;;;4346615;32;19960;-65
2021/10/05 12:46:07;;;;;;;6.32;3.83;;;10.70;49.60;;;;;;4336615;32;20109;-64
2021/10/05 12:48:51;;;;;;;8.48;4.25;;;10.60;50.30;;;;;;4314980;32;20063;-63
2021/10/05 12:51:22;;;;;;;7.07;3.37;;;10.60;50.60;;;;;;4324394;32;20125;-65
2021/10/05 12:53:51;;;;;;;4.55;3.10;;;10.50;50.60;;;;;;4335155;32;20635;-64
2021/10/05 12:56:25;;;;;;;5.85;4.35;;;10.50;51.70;;;;;;4335219;32;20070;-65
2021/10/05 12:58:52;;;;;;;37.95;22.15;;;10.40;51.00;;;;;;4342919;32;20145;-64
2021/10/05 13:01:19;;;;;;;7.50;4.43;;;10.40;51.10;;;;;;4348439;32;20083;-65
2021/10/05 13:03:45;;;;;;;6.43;3.90;;;10.30;50.40;;;;;;4335744;32;20062;-64